Time;durP1;ratioP1;P1;durP2;ratioP2;P2;SDS_P1;SDS_P2;PMS_P1;PMS_P2;Temp;Humidity;BMP_temperature;BMP_pressure;BME280_temperature;BME280_humidity;BME280_pressure;Samples;Min_cycle;Max_cycle;Signal;HPM_P1;HPM_P2
2023/07/31 00:02:25;;;;;;;4.50;3.00;;;;;;;16.26;100.00;98623.89;271690;1269;22320;-85
2023/07/31 00:08:27;;;;;;;5.70;3.30;;;;;;;16.23;100.00;98621.48;271663;1255;22419;-85
2023/07/31 00:14:28;;;;;;;7.80;3.60;;;;;;;16.04;100.00;98621.10;273235;1269;23380;-84
2023/07/31 00:20:32;;;;;;;5.40;3.00;;;;;;;16.00;100.00;98622.35;271590;1253;22760;-85
2023/07/31 00:26:34;;;;;;;5.80;3.80;;;;;;;15.99;100.00;98619.61;270601;1269;22537;-86
2023/07/31 00:32:57;;;;;;;4.40;3.10;;;;;;;16.01;100.00;98620.20;270365;1269;22546;-85
2023/07/31 00:39:00;;;;;;;5.60;3.10;;;;;;;16.05;100.00;98623.60;273138;1269;22379;-85
2023/07/31 00:45:03;;;;;;;5.60;3.20;;;;;;;16.06;100.00;98630.92;271599;1269;22484;-85
2023/07/31 00:51:07;;;;;;;5.50;3.10;;;;;;;16.08;100.00;98633.42;273986;1273;23803;-85
2023/07/31 00:57:12;;;;;;;5.90;2.80;;;;;;;16.13;100.00;98633.48;273256;1269;22255;-85
2023/07/31 01:03:32;;;;;;;5.70;3.10;;;;;;;16.19;100.00;98630.63;273893;1269;23374;-85
2023/07/31 01:09:53;;;;;;;5.60;3.10;;;;;;;16.24;100.00;98630.92;272994;1260;23049;-86
2023/07/31 01:16:01;;;;;;;6.40;3.00;;;;;;;16.30;100.00;98631.54;273460;1269;23589;-86
2023/07/31 01:22:28;;;;;;;8.60;2.80;;;;;;;16.31;100.00;98629.61;273345;1269;22197;-85
2023/07/31 01:29:08;;;;;;;6.80;2.70;;;;;;;16.37;100.00;98625.65;270947;1269;23124;-86
2023/07/31 01:35:10;;;;;;;4.50;2.40;;;;;;;16.44;100.00;98622.22;271941;1267;22430;-85
2023/07/31 01:41:53;;;;;;;5.60;2.60;;;;;;;16.52;100.00;98624.38;273859;1269;22227;-86
2023/07/31 01:48:36;;;;;;;5.30;3.40;;;;;;;16.58;100.00;98630.27;273548;1269;22185;-86
2023/07/31 01:55:20;;;;;;;4.20;2.80;;;;;;;16.66;100.00;98630.27;273939;1270;23388;-87
2023/07/31 02:02:19;;;;;;;5.90;2.40;;;;;;;16.74;100.00;98634.94;273734;1269;22380;-86
2023/07/31 02:08:56;;;;;;;4.30;2.40;;;;;;;16.80;100.00;98638.91;273275;1269;22301;-87
2023/07/31 02:14:58;;;;;;;2.80;1.80;;;;;;;16.86;100.00;98643.71;272474;1254;22393;-85
2023/07/31 02:21:20;;;;;;;3.90;2.20;;;;;;;16.91;100.00;98651.02;272570;1269;22215;-85
2023/07/31 02:28:03;;;;;;;5.20;2.20;;;;;;;16.95;100.00;98663.54;272963;1269;22575;-85
2023/07/31 02:35:06;;;;;;;4.80;2.70;;;;;;;16.98;100.00;98675.08;270500;1269;22536;-86
2023/07/31 02:41:28;;;;;;;3.80;2.10;;;;;;;17.01;100.00;98680.54;271032;1269;22498;-86
2023/07/31 02:47:30;;;;;;;3.60;2.20;;;;;;;17.04;100.00;98689.15;272997;1256;22430;-84
2023/07/31 02:53:32;;;;;;;4.10;2.40;;;;;;;17.07;100.00;98701.75;270640;1257;22215;-86
2023/07/31 02:59:34;;;;;;;4.00;2.30;;;;;;;17.09;100.00;98710.16;273286;1269;22377;-86
2023/07/31 03:06:16;;;;;;;3.60;2.20;;;;;;;17.10;100.00;98709.59;272827;1269;22417;-85
2023/07/31 03:12:34;;;;;;;4.10;2.20;;;;;;;17.11;100.00;98718.27;271601;1269;22436;-85
2023/07/31 03:18:54;;;;;;;2.70;1.90;;;;;;;17.09;100.00;98721.45;273519;1260;22323;-87
2023/07/31 03:24:56;;;;;;;4.20;2.40;;;;;;;17.10;100.00;98724.30;272826;1262;22535;-87
2023/07/31 03:31:38;;;;;;;3.90;2.30;;;;;;;17.12;100.00;98729.08;273020;1269;22455;-85
2023/07/31 03:38:25;;;;;;;5.10;2.50;;;;;;;17.12;100.00;98730.02;273361;1263;22853;-87
2023/07/31 03:44:52;;;;;;;5.00;2.30;;;;;;;17.13;100.00;98727.94;273409;1262;22184;-87
2023/07/31 03:51:17;;;;;;;4.40;2.70;;;;;;;17.15;100.00;98726.81;273710;1258;22314;-85
2023/07/31 03:57:19;;;;;;;5.60;2.40;;;;;;;17.16;100.00;98722.91;273364;1256;23262;-86
2023/07/31 04:04:01;;;;;;;7.00;2.50;;;;;;;17.17;100.00;98724.94;273269;1269;22420;-86
2023/07/31 04:10:03;;;;;;;6.50;2.30;;;;;;;17.21;100.00;98733.09;273153;1269;22890;-86
2023/07/31 04:16:45;;;;;;;3.40;2.10;;;;;;;17.25;100.00;98730.71;273375;1269;23353;-87
2023/07/31 04:22:49;;;;;;;5.40;2.60;;;;;;;17.29;100.00;98731.52;273332;1259;22678;-85
2023/07/31 04:28:51;;;;;;;4.20;2.40;;;;;;;17.28;100.00;98731.11;272361;1269;22959;-86
2023/07/31 04:34:56;;;;;;;3.60;2.50;;;;;;;17.29;100.00;98729.39;271955;1261;22535;-85
2023/07/31 04:41:21;;;;;;;4.90;2.70;;;;;;;17.33;100.00;98736.71;272070;1269;22415;-87
2023/07/31 04:47:23;;;;;;;5.70;2.20;;;;;;;17.39;100.00;98746.27;273129;1259;23638;-84
2023/07/31 04:53:24;;;;;;;3.90;2.40;;;;;;;17.45;100.00;98750.18;273000;1269;23306;-84
2023/07/31 04:59:56;;;;;;;5.10;2.50;;;;;;;17.51;100.00;98753.77;273219;1269;22354;-83
2023/07/31 05:05:58;;;;;;;4.90;3.10;;;;;;;17.51;100.00;98760.72;272298;1268;23344;-86
2023/07/31 05:12:19;;;;;;;5.90;3.10;;;;;;;17.50;100.00;98769.06;272904;1269;22586;-85
2023/07/31 05:18:21;;;;;;;5.80;2.50;;;;;;;17.50;100.00;98775.80;270904;1260;22517;-85
2023/07/31 05:24:25;;;;;;;3.90;2.70;;;;;;;17.51;100.00;98780.44;272274;1259;22574;-85
2023/07/31 05:30:27;;;;;;;6.20;2.60;;;;;;;17.50;100.00;98784.17;272829;1259;22347;-86
2023/07/31 05:36:49;;;;;;;4.20;2.80;;;;;;;17.48;100.00;98782.63;273542;1265;22244;-85
2023/07/31 05:42:52;;;;;;;6.40;2.90;;;;;;;17.48;100.00;98784.36;273124;1266;22481;-85
2023/07/31 05:48:56;;;;;;;3.80;3.50;;;;;;;17.47;100.00;98794.97;273052;1266;23347;-85
2023/07/31 05:54:57;;;;;;;3.30;3.00;;;;;;;17.47;100.00;98799.15;273594;1256;22320;-87
2023/07/31 06:01:40;;;;;;;3.80;3.10;;;;;;;17.48;100.00;98795.58;273541;1274;23246;-85
2023/07/31 06:08:02;;;;;;;3.90;3.00;;;;;;;17.44;100.00;98801.02;273132;1269;22196;-86
2023/07/31 06:14:03;;;;;;;6.50;3.30;;;;;;;17.47;100.00;98799.71;273720;1269;23372;-86
2023/07/31 06:20:07;;;;;;;5.70;3.20;;;;;;;17.49;100.00;98804.58;272016;1269;22608;-85
2023/07/31 06:26:08;;;;;;;6.70;3.10;;;;;;;17.52;100.00;98807.05;270223;1269;23927;-83
2023/07/31 06:32:10;;;;;;;5.00;3.10;;;;;;;17.64;100.00;98803.02;270584;1269;23673;-87
2023/07/31 06:38:32;;;;;;;5.60;3.40;;;;;;;17.71;100.00;98805.08;270324;1269;22533;-86
2023/07/31 06:44:54;;;;;;;6.10;3.80;;;;;;;17.69;100.00;98801.55;272381;1260;22295;-87
2023/07/31 06:50:56;;;;;;;5.70;3.20;;;;;;;17.74;100.00;98801.54;272972;1263;22396;-87
2023/07/31 06:57:19;;;;;;;4.00;2.90;;;;;;;17.83;100.00;98801.28;273943;1269;22169;-85
2023/07/31 07:03:52;;;;;;;5.40;3.20;;;;;;;17.93;100.00;98799.25;271728;1269;22266;-86
2023/07/31 07:10:19;;;;;;;4.30;2.70;;;;;;;18.01;100.00;98803.09;273567;1259;22192;-86
2023/07/31 07:17:01;;;;;;;3.90;2.90;;;;;;;18.10;100.00;98803.92;273210;1269;22321;-86
2023/07/31 07:23:02;;;;;;;4.10;2.20;;;;;;;18.26;100.00;98809.52;273329;1260;22403;-86
2023/07/31 07:29:07;;;;;;;6.00;3.00;;;;;;;18.38;100.00;98808.05;272753;1269;22631;-86
2023/07/31 07:35:09;;;;;;;6.70;4.10;;;;;;;18.43;100.00;98811.66;272590;1269;23808;-86
2023/07/31 07:41:12;;;;;;;3.20;2.60;;;;;;;18.51;100.00;98814.73;273558;1269;22484;-86
2023/07/31 07:47:49;;;;;;;5.70;2.70;;;;;;;18.58;100.00;98815.27;272833;1269;22217;-86
2023/07/31 07:53:51;;;;;;;4.40;2.10;;;;;;;18.64;100.00;98817.20;273127;1269;24031;-85
2023/07/31 07:59:55;;;;;;;7.00;2.90;;;;;;;18.69;100.00;98823.08;272962;1269;22508;-86
2023/07/31 08:05:58;;;;;;;5.60;2.50;;;;;;;18.75;100.00;98819.55;272233;1263;141113;-85
2023/07/31 08:12:08;;;;;;;4.40;2.60;;;;;;;18.87;100.00;98819.48;274031;1273;23022;-86
2023/07/31 08:18:11;;;;;;;7.90;3.20;;;;;;;18.98;100.00;98819.30;273359;1269;22411;-84
2023/07/31 08:24:32;;;;;;;3.90;2.50;;;;;;;19.03;100.00;98824.88;271253;1262;22526;-86
2023/07/31 08:31:11;;;;;;;5.20;2.60;;;;;;;19.07;99.63;98826.90;272327;1259;22238;-86
2023/07/31 08:37:15;;;;;;;3.40;2.50;;;;;;;19.11;99.27;98828.05;273013;1269;22470;-85
2023/07/31 08:43:26;;;;;;;3.60;2.00;;;;;;;19.17;98.96;98835.77;273222;1269;22526;-84
2023/07/31 08:50:09;;;;;;;4.90;2.50;;;;;;;19.24;98.52;98834.56;272620;1269;22303;-86
2023/07/31 08:56:42;;;;;;;4.10;2.50;;;;;;;19.31;97.77;98829.15;273066;1269;22388;-85
2023/07/31 09:03:02;;;;;;;7.00;2.30;;;;;;;19.39;97.73;98829.33;273082;1269;22282;-85
2023/07/31 09:09:05;;;;;;;5.00;2.50;;;;;;;19.45;96.55;98822.59;273026;1269;22235;-85
2023/07/31 09:15:08;;;;;;;4.80;2.30;;;;;;;19.67;95.37;98819.27;273368;1259;23591;-84
2023/07/31 09:21:28;;;;;;;5.60;2.60;;;;;;;19.99;94.19;98816.59;273238;1269;23357;-86
2023/07/31 09:27:48;;;;;;;4.70;2.10;;;;;;;20.49;93.33;98815.86;271561;1269;22292;-86
2023/07/31 09:33:56;;;;;;;3.00;1.60;;;;;;;21.02;92.44;98818.46;273074;1269;22221;-86
2023/07/31 09:39:59;;;;;;;3.10;1.50;;;;;;;21.25;91.18;98812.11;273295;1269;22173;-86
2023/07/31 09:46:21;;;;;;;4.10;1.90;;;;;;;22.10;90.12;98801.03;272021;1269;22426;-87
2023/07/31 09:52:43;;;;;;;3.70;1.90;;;;;;;23.11;87.77;98798.27;271103;1269;22364;-85
2023/07/31 09:59:28;;;;;;;4.50;2.10;;;;;;;24.16;85.20;98790.35;271720;1269;22283;-85
2023/07/31 10:05:53;;;;;;;2.70;1.50;;;;;;;25.05;82.35;98784.57;271100;1269;22627;-85
2023/07/31 10:12:42;;;;;;;4.20;1.50;;;;;;;25.70;80.22;98779.11;271091;1262;23767;-85
2023/07/31 10:18:49;;;;;;;2.30;1.40;;;;;;;26.27;77.89;98768.58;273227;1259;23329;-85
2023/07/31 10:25:35;;;;;;;3.40;1.60;;;;;;;26.54;75.78;98758.92;272942;1269;22482;-86
2023/07/31 10:31:58;;;;;;;3.60;1.60;;;;;;;26.70;74.12;98753.67;273307;1269;22195;-85
2023/07/31 10:38:11;;;;;;;4.60;1.60;;;;;;;26.71;72.09;98743.43;273023;1269;22210;-86
2023/07/31 10:44:13;;;;;;;4.90;1.40;;;;;;;26.52;69.79;98734.91;273360;1269;22453;-82
2023/07/31 10:50:23;;;;;;;6.20;1.20;;;;;;;26.47;69.14;98731.42;272760;1269;22346;-86
2023/07/31 10:56:26;;;;;;;6.40;1.30;;;;;;;26.45;68.66;98730.77;273086;1269;22501;-85
2023/07/31 11:02:33;;;;;;;4.80;1.20;;;;;;;26.44;67.08;98726.56;273186;1269;22987;-87
2023/07/31 11:08:42;;;;;;;2.00;1.30;;;;;;;26.49;64.66;98719.59;271668;1269;22282;-86
2023/07/31 11:15:03;;;;;;;3.90;1.30;;;;;;;26.81;64.88;98712.05;271691;1262;23343;-84
2023/07/31 11:21:43;;;;;;;6.80;1.90;;;;;;;27.09;63.27;98701.64;272020;1273;22619;-84
2023/07/31 11:27:45;;;;;;;2.40;1.40;;;;;;;26.84;61.95;98703.33;272144;1273;23059;-85
2023/07/31 11:33:47;;;;;;;1.90;1.20;;;;;;;26.46;61.86;98702.06;272368;1263;22542;-85
2023/07/31 11:40:02;;;;;;;5.20;1.30;;;;;;;26.63;60.80;98696.54;272467;1273;22340;-81
2023/07/31 11:46:24;;;;;;;3.70;1.20;;;;;;;26.85;59.65;98695.06;272327;1266;22499;-82
2023/07/31 11:52:26;;;;;;;2.30;1.30;;;;;;;26.87;59.17;98693.56;273059;1269;22454;-82
2023/07/31 11:58:39;;;;;;;3.70;1.40;;;;;;;26.94;58.42;98682.00;271255;1269;22602;-82
2023/07/31 12:05:17;;;;;;;4.90;1.50;;;;;;;26.92;58.07;98683.21;272142;1269;22411;-82
2023/07/31 12:11:24;;;;;;;2.30;1.40;;;;;;;26.39;56.19;98675.42;271140;1269;22201;-83
2023/07/31 12:18:07;;;;;;;3.60;1.80;;;;;;;25.96;56.17;98673.16;272061;1269;22424;-83
2023/07/31 12:24:10;;;;;;;3.70;1.40;;;;;;;25.68;56.54;98671.73;272817;1269;22978;-83
2023/07/31 12:30:29;;;;;;;2.00;1.30;;;;;;;25.55;56.54;98659.49;272860;1269;22317;-84
2023/07/31 12:36:35;;;;;;;6.10;1.40;;;;;;;25.45;55.69;98646.98;273041;1269;22433;-83
2023/07/31 12:43:03;;;;;;;3.90;1.20;;;;;;;25.26;55.30;98641.20;272737;1269;22414;-86
2023/07/31 12:49:05;;;;;;;4.60;1.90;;;;;;;25.05;54.68;98637.05;272664;1269;23496;-85
2023/07/31 12:55:52;;;;;;;3.40;1.90;;;;;;;24.76;54.52;98635.77;270793;1269;22835;-84
2023/07/31 13:01:54;;;;;;;3.70;1.90;;;;;;;24.53;54.74;98628.95;273047;1266;22217;-84
2023/07/31 13:07:56;;;;;;;5.60;1.80;;;;;;;24.42;54.82;98627.66;273005;1269;22483;-83
2023/07/31 13:14:18;;;;;;;3.40;1.70;;;;;;;24.27;54.30;98623.15;273139;1269;22593;-84
2023/07/31 13:20:19;;;;;;;2.50;1.40;;;;;;;24.19;54.80;98613.98;273254;1269;23310;-83
2023/07/31 13:26:21;;;;;;;2.80;1.40;;;;;;;24.13;54.80;98610.44;273223;1269;22298;-82
2023/07/31 13:33:03;;;;;;;4.20;1.90;;;;;;;24.09;54.67;98613.90;273024;1267;22221;-83
2023/07/31 13:39:05;;;;;;;4.30;1.70;;;;;;;24.14;55.30;98604.46;272306;1269;23715;-83
2023/07/31 13:45:06;;;;;;;3.30;1.40;;;;;;;24.15;54.83;98599.14;273260;1269;22475;-83
2023/07/31 13:51:08;;;;;;;3.80;2.00;;;;;;;24.06;54.24;98597.83;272945;1269;22375;-83
2023/07/31 13:57:10;;;;;;;6.30;1.70;;;;;;;24.00;54.61;98594.38;273210;1260;22397;-83
2023/07/31 14:03:25;;;;;;;3.20;1.80;;;;;;;23.98;54.86;98592.89;273152;1269;22586;-82
2023/07/31 14:09:29;;;;;;;4.60;1.30;;;;;;;23.83;54.02;98593.77;272605;1267;23267;-83
2023/07/31 14:15:54;;;;;;;3.70;1.40;;;;;;;23.77;54.43;98588.84;273130;1269;22389;-84
2023/07/31 14:21:58;;;;;;;3.90;1.50;;;;;;;23.82;53.92;98576.70;273149;1269;24041;-84
2023/07/31 14:28:07;;;;;;;5.60;1.60;;;;;;;23.84;53.39;98570.30;273150;1269;22420;-84
2023/07/31 14:34:17;;;;;;;1.90;1.20;;;;;;;23.85;53.28;98567.56;271978;1269;22572;-85
2023/07/31 14:40:19;;;;;;;2.50;1.60;;;;;;;23.83;53.23;98564.43;272435;1269;22698;-83
2023/07/31 14:46:45;;;;;;;4.10;2.00;;;;;;;23.81;53.66;98563.84;273165;1269;23086;-82
2023/07/31 14:52:47;;;;;;;3.60;1.50;;;;;;;23.76;53.45;98559.48;273187;1269;22652;-83
2023/07/31 14:58:51;;;;;;;4.10;2.10;;;;;;;23.75;54.03;98548.71;273174;1270;22418;-83
2023/07/31 15:04:53;;;;;;;4.10;1.50;;;;;;;23.69;54.16;98547.74;273207;1260;22200;-84
2023/07/31 15:10:57;;;;;;;2.90;1.40;;;;;;;23.59;54.04;98547.67;273116;1269;22431;-85
2023/07/31 15:17:19;;;;;;;3.10;1.10;;;;;;;23.53;54.24;98546.40;273055;1269;22422;-84
2023/07/31 15:23:26;;;;;;;5.00;1.40;;;;;;;23.49;54.47;98542.89;272891;1263;22203;-84
2023/07/31 15:29:28;;;;;;;4.60;1.50;;;;;;;23.40;54.39;98535.58;273118;1269;22515;-83
2023/07/31 15:35:30;;;;;;;4.10;1.00;;;;;;;23.28;55.02;98535.89;273185;1269;22223;-84
2023/07/31 15:41:33;;;;;;;2.90;1.30;;;;;;;23.22;55.22;98539.34;273100;1269;23852;-84
2023/07/31 15:47:34;;;;;;;6.80;1.90;;;;;;;23.14;55.68;98533.44;272289;1259;22601;-84
2023/07/31 15:53:39;;;;;;;2.70;1.30;;;;;;;23.01;56.33;98530.61;273284;1257;22403;-84
2023/07/31 15:59:54;;;;;;;5.20;1.50;;;;;;;22.91;56.38;98524.06;273062;1269;22466;-84
2023/07/31 16:05:59;;;;;;;3.80;1.50;;;;;;;22.80;56.07;98522.06;272770;1269;22471;-84
2023/07/31 16:12:01;;;;;;;2.80;1.40;;;;;;;22.75;56.46;98516.23;273044;1269;23723;-83
2023/07/31 16:18:03;;;;;;;3.50;1.40;;;;;;;22.72;57.11;98517.02;272263;1268;22548;-84
2023/07/31 16:24:05;;;;;;;4.70;1.40;;;;;;;22.65;57.97;98517.66;273071;1260;22159;-84
2023/07/31 16:30:07;;;;;;;4.30;1.50;;;;;;;22.52;58.62;98516.35;272898;1260;22473;-84
2023/07/31 16:36:08;;;;;;;5.90;1.70;;;;;;;22.42;58.95;98518.11;272684;1264;23196;-84
2023/07/31 16:42:10;;;;;;;3.00;1.60;;;;;;;22.33;59.38;98508.64;271422;1255;23424;-83
2023/07/31 16:48:12;;;;;;;9.00;2.00;;;;;;;22.26;59.63;98506.75;273076;1261;22151;-84
2023/07/31 16:54:13;;;;;;;3.40;1.70;;;;;;;22.16;59.65;98507.33;273083;1269;23734;-85
2023/07/31 17:00:29;;;;;;;7.30;2.50;;;;;;;22.08;59.77;98508.40;265377;1259;10001864;-84
2023/07/31 17:06:52;;;;;;;4.10;1.60;;;;;;;21.98;60.04;98507.30;272954;1269;22377;-85
2023/07/31 17:12:54;;;;;;;5.10;2.00;;;;;;;21.99;60.37;98504.65;272969;1269;22338;-83
2023/07/31 17:18:56;;;;;;;6.60;1.50;;;;;;;21.96;60.92;98502.59;273076;1266;22312;-84
2023/07/31 17:25:12;;;;;;;3.30;1.70;;;;;;;21.89;61.73;98502.02;273101;1269;22367;-85
2023/07/31 17:31:14;;;;;;;4.80;1.80;;;;;;;21.84;62.31;98507.16;273164;1263;22441;-84
2023/07/31 17:37:15;;;;;;;3.30;1.20;;;;;;;21.82;62.23;98506.30;272959;1259;23622;-84
2023/07/31 17:43:32;;;;;;;3.90;1.50;;;;;;;21.81;62.37;98509.51;273238;1260;22231;-84
2023/07/31 17:49:50;;;;;;;4.80;1.70;;;;;;;21.78;62.59;98512.76;273031;1269;22378;-83
2023/07/31 17:55:52;;;;;;;5.00;2.00;;;;;;;21.75;62.37;98516.29;273041;1259;22420;-83
2023/07/31 18:02:14;;;;;;;3.70;1.50;;;;;;;21.66;62.33;98524.11;273079;1269;23535;-83
2023/07/31 18:08:18;;;;;;;7.10;1.90;;;;;;;21.60;62.35;98529.80;273102;1269;22201;-84
2023/07/31 18:14:24;;;;;;;5.00;1.60;;;;;;;21.47;63.14;98531.88;273085;1268;23564;-83
2023/07/31 18:20:26;;;;;;;2.60;1.40;;;;;;;21.29;63.94;98528.25;273051;1259;23390;-84
2023/07/31 18:26:30;;;;;;;4.00;1.70;;;;;;;21.06;64.59;98528.25;273032;1269;22373;-84
2023/07/31 18:32:32;;;;;;;3.80;1.60;;;;;;;20.81;65.25;98529.75;273081;1265;22403;-83
2023/07/31 18:38:54;;;;;;;6.60;1.80;;;;;;;20.61;66.15;98527.33;273049;1258;22274;-83
2023/07/31 18:45:38;;;;;;;6.80;3.20;;;;;;;20.37;66.60;98526.55;272895;1269;23066;-84
2023/07/31 18:52:00;;;;;;;5.80;3.00;;;;;;;20.12;67.43;98534.52;273059;1260;22199;-83
2023/07/31 18:58:04;;;;;;;7.40;3.60;;;;;;;19.95;68.43;98539.70;272898;1269;22236;-84
2023/07/31 19:04:07;;;;;;;7.00;3.70;;;;;;;19.79;69.10;98535.33;272983;1262;23194;-83
2023/07/31 19:10:09;;;;;;;5.60;2.90;;;;;;;19.54;70.97;98535.92;272356;1269;23760;-84
2023/07/31 19:16:11;;;;;;;11.40;4.60;;;;;;;19.30;72.08;98542.68;272978;1269;22477;-84
2023/07/31 19:22:13;;;;;;;9.80;4.70;;;;;;;19.11;72.27;98553.94;273024;1260;23283;-82
2023/07/31 19:28:15;;;;;;;11.90;3.80;;;;;;;18.93;72.45;98552.05;273178;1269;22809;-84
2023/07/31 19:34:37;;;;;;;8.80;3.90;;;;;;;18.77;75.20;98557.98;272981;1259;22202;-83
2023/07/31 19:40:39;;;;;;;12.40;4.40;;;;;;;18.58;77.08;98565.70;272712;1269;22309;-84
2023/07/31 19:46:41;;;;;;;9.80;5.20;;;;;;;18.40;76.60;98565.87;272794;1260;23132;-83
2023/07/31 19:52:43;;;;;;;9.30;5.30;;;;;;;18.35;77.17;98564.27;273204;1267;22654;-83
2023/07/31 19:59:05;;;;;;;11.30;6.20;;;;;;;18.22;77.39;98553.62;265272;1269;10001846;-83
2023/07/31 20:05:07;;;;;;;13.30;6.10;;;;;;;18.00;77.74;98549.68;273253;1269;146688;-83
2023/07/31 20:11:10;;;;;;;10.50;4.40;;;;;;;17.79;79.11;98546.17;273048;1269;22483;-83
2023/07/31 20:17:12;;;;;;;14.00;5.40;;;;;;;17.70;80.13;98541.97;273280;1269;22366;-84
2023/07/31 20:23:16;;;;;;;10.90;4.60;;;;;;;17.60;80.71;98537.63;273360;1269;22286;-84
2023/07/31 20:29:18;;;;;;;8.60;4.60;;;;;;;17.43;81.67;98524.11;273046;1258;22421;-84
2023/07/31 20:35:20;;;;;;;8.30;4.30;;;;;;;17.27;81.97;98514.98;272541;1258;22370;-84
2023/07/31 20:41:43;;;;;;;5.80;4.10;;;;;;;17.18;83.51;98513.92;272064;1259;22654;-83
2023/07/31 20:47:45;;;;;;;12.10;4.90;;;;;;;17.07;84.01;98513.94;271129;1269;22530;-84
2023/07/31 20:53:51;;;;;;;10.00;4.20;;;;;;;16.98;84.63;98508.21;270340;1269;23361;-84
2023/07/31 21:00:14;;;;;;;11.40;5.10;;;;;;;16.85;85.39;98506.52;271053;1269;23441;-84
2023/07/31 21:06:34;;;;;;;16.00;6.40;;;;;;;16.73;86.03;98496.28;272368;1269;22426;-84
2023/07/31 21:13:16;;;;;;;13.70;5.80;;;;;;;16.62;86.42;98495.17;273477;1269;22276;-84
2023/07/31 21:19:22;;;;;;;13.30;5.80;;;;;;;16.50;87.02;98496.22;273518;1260;22218;-84
2023/07/31 21:25:44;;;;;;;11.70;4.20;;;;;;;16.36;87.06;98487.33;273572;1269;22406;-84
2023/07/31 21:31:46;;;;;;;9.80;4.20;;;;;;;16.22;87.59;98474.27;273588;1268;23256;-84
2023/07/31 21:37:57;;;;;;;9.00;4.40;;;;;;;16.14;88.86;98462.90;273544;1261;22563;-84
2023/07/31 21:44:16;;;;;;;6.70;4.10;;;;;;;16.12;89.70;98461.13;270594;1268;22358;-84
2023/07/31 21:50:18;;;;;;;7.90;3.80;;;;;;;16.12;90.24;98457.74;271370;1257;23280;-84
2023/07/31 21:56:23;;;;;;;14.10;5.20;;;;;;;16.03;90.50;98450.90;271876;1269;22481;-84
2023/07/31 22:02:44;;;;;;;8.10;4.90;;;;;;;15.88;90.63;98446.69;273099;1269;22541;-84
2023/07/31 22:08:46;;;;;;;8.80;4.50;;;;;;;15.78;91.36;98437.73;272473;1268;22352;-84
2023/07/31 22:14:48;;;;;;;7.20;4.20;;;;;;;15.75;92.01;98426.84;272608;1265;22534;-85
2023/07/31 22:21:13;;;;;;;9.30;4.90;;;;;;;15.66;92.35;98419.82;273207;1269;23612;-85
2023/07/31 22:27:17;;;;;;;6.80;4.90;;;;;;;15.57;92.74;98410.22;272743;1269;22662;-85
2023/07/31 22:34:00;;;;;;;13.60;5.20;;;;;;;15.50;93.08;98403.48;271277;1269;23001;-85
2023/07/31 22:40:05;;;;;;;10.40;5.00;;;;;;;15.42;93.78;98400.70;272382;1266;22576;-85
2023/07/31 22:46:07;;;;;;;11.50;5.50;;;;;;;15.38;94.05;98395.09;271361;1259;22529;-85
2023/07/31 22:52:09;;;;;;;13.60;5.10;;;;;;;15.34;94.91;98397.50;272006;1269;22473;-85
2023/07/31 22:58:33;;;;;;;10.70;5.10;;;;;;;15.32;95.56;98396.83;270081;1263;23706;-85
2023/07/31 23:04:38;;;;;;;15.60;5.60;;;;;;;15.28;96.01;98397.36;273167;1269;22206;-85
2023/07/31 23:11:26;;;;;;;11.60;6.00;;;;;;;15.23;96.08;98396.35;273399;1269;22391;-85
2023/07/31 23:17:50;;;;;;;16.10;6.40;;;;;;;15.11;96.12;98396.80;272707;1265;22222;-85
2023/07/31 23:23:52;;;;;;;9.20;6.00;;;;;;;15.00;96.49;98395.15;271655;1269;23375;-85
2023/07/31 23:29:54;;;;;;;12.00;6.50;;;;;;;15.03;97.32;98391.48;273367;1266;23312;-85
2023/07/31 23:35:58;;;;;;;9.90;6.50;;;;;;;15.03;97.65;98390.55;273328;1261;22433;-85
2023/07/31 23:41:59;;;;;;;11.40;5.70;;;;;;;14.98;97.60;98387.23;273355;1269;22472;-85
2023/07/31 23:48:01;;;;;;;11.40;6.30;;;;;;;14.89;97.73;98383.61;273158;1259;22497;-85
2023/07/31 23:54:03;;;;;;;12.20;6.40;;;;;;;14.77;97.82;98380.88;273359;1269;23179;-85
